This is the latest recevied weather packets stored in our database for station/object SP6RGZ-1. If no packets are shown the sender has not sent any weather packets the latest 10 day(s).
| Time | Temp. | Humidity | Pressure | Rain* | Wind** | Luminosity | Snow |
|---|---|---|---|---|---|---|---|
| 1778051702 | 20.56° C | 66% | 986.1 hPa | - | - | - | - |
| 1778050802 | 20° C | 67% | 986.3 hPa | - | - | - | - |
| 1778049902 | 20° C | 67% | 986.2 hPa | - | - | - | - |
| 1778049002 | 18.33° C | 73% | 986.2 hPa | - | - | - | - |
| 1778048102 | 18.33° C | 73% | 986.1 hPa | - | - | - | - |
| 1778047202 | 18.89° C | 68% | 986 hPa | - | - | - | - |
| 1778046302 | 20° C | 66% | 985.8 hPa | - | - | - | - |
| 1778045402 | 18.33° C | 71% | 985.6 hPa | - | - | - | - |
| 1778044502 | 16.67° C | 78% | 985.6 hPa | - | - | - | - |
| 1778043602 | 16.67° C | 76% | 985.6 hPa | - | - | - | - |
| 1778042702 | 16.11° C | 77% | 985.5 hPa | - | - | - | - |
| 1778041803 | 14.44° C | 86% | 985.7 hPa | - | - | - | - |
| 1778040902 | 14.44° C | 85% | 985.3 hPa | - | - | - | - |
| 1778040002 | 13.33° C | 88% | 985 hPa | - | - | - | - |
| 1778039103 | 12.78° C | 95% | 984.8 hPa | - | - | - | - |
| 1778035502 | 11.67° C | 98% | 985.4 hPa | - | - | - | - |
| 1778034602 | 11.67° C | 97% | 985.4 hPa | - | - | - | - |
| 1778033702 | 12.22° C | 95% | 985.5 hPa | - | - | - | - |
| 1778032802 | 12.22° C | 95% | 985.5 hPa | - | - | - | - |
| 1778031902 | 12.22° C | 93% | 985.4 hPa | - | - | - | - |
| 1778031002 | 12.78° C | 91% | 985.5 hPa | - | - | - | - |
| 1778030103 | 12.78° C | 91% | 985.5 hPa | - | - | - | - |
| 1778029202 | 12.78° C | 89% | 985.4 hPa | - | - | - | - |
| 1778028302 | 13.33° C | 88% | 985.2 hPa | - | - | - | - |
| 1778027402 | 13.89° C | 87% | 985.1 hPa | - | - | - | - |
* Rain since midnight (hover to see other rain measurements)
** Current wind speed in m/s (hover to see current wind gust speed)